Time;durP1;ratioP1;P1;durP2;ratioP2;P2;SDS_P1;SDS_P2;PMS_P1;PMS_P2;Temp;Humidity;BMP_temperature;BMP_pressure;BME280_temperature;BME280_humidity;BME280_pressure;Samples;Min_cycle;Max_cycle;Signal;HPM_P1;HPM_P2
2022/06/19 00:00:27;;;;;;;0.00;0.00;;;;;;;;;;5039612;27;92399;-73
2022/06/19 00:02:53;;;;;;;2.53;1.27;;;;;;;;;;5058686;27;93769;-73
2022/06/19 00:05:20;;;;;;;0.00;0.00;;;;;;;;;;5057847;27;93445;-74
2022/06/19 00:07:46;;;;;;;0.00;0.00;;;;;;;;;;5058288;27;92314;-73
2022/06/19 00:10:13;;;;;;;0.03;0.03;;;;;;;;;;5056567;27;94571;-72
2022/06/19 00:12:40;;;;;;;0.00;0.00;;;;;;;;;;5057499;27;93726;-73
2022/06/19 00:15:07;;;;;;;0.00;0.00;;;;;;;;;;5057780;27;92446;-73
2022/06/19 00:17:33;;;;;;;0.15;0.15;;;;;;;;;;5060828;27;93149;-73
2022/06/19 00:20:00;;;;;;;0.00;0.00;;;;;;;;;;5057908;27;92392;-73
2022/06/19 00:22:26;;;;;;;1.58;1.48;;;;;;;;;;5057848;27;92707;-73
2022/06/19 00:24:53;;;;;;;0.00;0.00;;;;;;;;;;5057680;27;93052;-73
2022/06/19 00:27:19;;;;;;;0.20;0.20;;;;;;;;;;5057407;27;91624;-73
2022/06/19 00:29:46;;;;;;;0.00;0.00;;;;;;;;;;5039622;27;95399;-75
2022/06/19 00:32:13;;;;;;;0.00;0.00;;;;;;;;;;5057595;27;93758;-73
2022/06/19 00:34:40;;;;;;;0.00;0.00;;;;;;;;;;5055926;27;94748;-74
2022/06/19 00:37:06;;;;;;;0.00;0.00;;;;;;;;;;5058760;27;95132;-73
2022/06/19 00:39:39;;;;;;;0.00;0.00;;;;;;;;;;5062304;27;93710;-73
2022/06/19 00:42:07;;;;;;;0.00;0.00;;;;;;;;;;5057662;27;93396;-72
2022/06/19 00:44:33;;;;;;;1.10;1.00;;;;;;;;;;5057313;27;93727;-72
2022/06/19 00:47:06;;;;;;;0.00;0.00;;;;;;;;;;5057572;27;92341;-73
2022/06/19 00:49:34;;;;;;;0.00;0.00;;;;;;;;;;5057583;27;93176;-72
2022/06/19 00:52:10;;;;;;;0.00;0.00;;;;;;;;;;5057839;27;91923;-71
2022/06/19 00:54:59;;;;;;;0.00;0.00;;;;;;;;;;5057647;27;92977;-73
2022/06/19 00:57:27;;;;;;;0.00;0.00;;;;;;;;;;5043996;27;93228;-74
2022/06/19 00:59:56;;;;;;;0.70;0.65;;;;;;;;;;5055258;27;95058;-74
2022/06/19 01:02:23;;;;;;;0.00;0.00;;;;;;;;;;5060454;27;92236;-74
2022/06/19 01:04:51;;;;;;;0.05;0.05;;;;;;;;;;5056569;27;93288;-74
2022/06/19 01:07:18;;;;;;;0.00;0.00;;;;;;;;;;5039805;27;92323;-74
2022/06/19 01:09:45;;;;;;;0.00;0.00;;;;;;;;;;5057979;27;93169;-72
2022/06/19 01:12:12;;;;;;;0.00;0.00;;;;;;;;;;5060758;27;93593;-75
2022/06/19 01:14:40;;;;;;;0.00;0.00;;;;;;;;;;5060921;27;92387;-74
2022/06/19 01:17:07;;;;;;;0.00;0.00;;;;;;;;;;5061258;27;93575;-74
2022/06/19 01:19:36;;;;;;;0.00;0.00;;;;;;;;;;5060506;27;93437;-74
2022/06/19 01:22:08;;;;;;;0.00;0.00;;;;;;;;;;5060791;27;92280;-74
2022/06/19 01:24:35;;;;;;;0.00;0.00;;;;;;;;;;5062074;27;94676;-74
2022/06/19 01:27:02;;;;;;;0.00;0.00;;;;;;;;;;5060640;27;92369;-75
2022/06/19 01:29:30;;;;;;;0.00;0.00;;;;;;;;;;5042889;27;93541;-75
2022/06/19 01:31:59;;;;;;;0.00;0.00;;;;;;;;;;5059919;27;93373;-76
2022/06/19 01:34:27;;;;;;;0.00;0.00;;;;;;;;;;5060569;27;92296;-73
2022/06/19 01:36:57;;;;;;;0.00;0.00;;;;;;;;;;5060746;27;93386;-74
2022/06/19 01:39:24;;;;;;;0.00;0.00;;;;;;;;;;5060193;27;93523;-74
2022/06/19 01:41:50;;;;;;;0.00;0.00;;;;;;;;;;5060980;27;91589;-74
2022/06/19 01:44:16;;;;;;;0.00;0.00;;;;;;;;;;5060334;27;92697;-75
2022/06/19 01:46:43;;;;;;;0.00;0.00;;;;;;;;;;5063038;27;94115;-74
2022/06/19 01:49:09;;;;;;;0.00;0.00;;;;;;;;;;5058702;27;94847;-75
2022/06/19 01:51:36;;;;;;;0.00;0.00;;;;;;;;;;5059986;27;93762;-75
2022/06/19 01:54:06;;;;;;;0.00;0.00;;;;;;;;;;5060075;27;92250;-73
2022/06/19 01:56:33;;;;;;;0.00;0.00;;;;;;;;;;5042211;27;96356;-74
2022/06/19 01:59:10;;;;;;;0.00;0.00;;;;;;;;;;5059561;27;93178;-74
2022/06/19 02:01:37;;;;;;;0.00;0.00;;;;;;;;;;5041564;27;92431;-74
2022/06/19 02:04:05;;;;;;;0.00;0.00;;;;;;;;;;5060077;27;93004;-74
2022/06/19 02:06:40;;;;;;;0.00;0.00;;;;;;;;;;5060648;27;92243;-74
2022/06/19 02:09:07;;;;;;;0.00;0.00;;;;;;;;;;5063065;27;92303;-76
2022/06/19 02:11:34;;;;;;;0.00;0.00;;;;;;;;;;5059465;27;93493;-73
2022/06/19 02:14:05;;;;;;;0.00;0.00;;;;;;;;;;5040557;27;94749;-73
2022/06/19 02:16:35;;;;;;;0.00;0.00;;;;;;;;;;5059810;27;95763;-74
2022/06/19 02:19:02;;;;;;;0.00;0.00;;;;;;;;;;5041934;27;93426;-75
2022/06/19 02:21:38;;;;;;;0.00;0.00;;;;;;;;;;5059690;27;92247;-72
2022/06/19 02:24:05;;;;;;;0.55;0.55;;;;;;;;;;5059344;27;92603;-73
2022/06/19 02:26:34;;;;;;;0.00;0.00;;;;;;;;;;5059492;27;93737;-74
2022/06/19 02:29:00;;;;;;;0.20;0.20;;;;;;;;;;5062744;27;92261;-74
2022/06/19 02:31:26;;;;;;;0.00;0.00;;;;;;;;;;5042330;27;93094;-72
2022/06/19 02:33:55;;;;;;;0.00;0.00;;;;;;;;;;5059641;27;92350;-73
2022/06/19 02:36:30;;;;;;;0.00;0.00;;;;;;;;;;5059399;27;93313;-74
2022/06/19 02:39:00;;;;;;;0.00;0.00;;;;;;;;;;5057741;27;95919;-75
2022/06/19 02:41:30;;;;;;;0.00;0.00;;;;;;;;;;5059985;27;92514;-74
2022/06/19 02:43:59;;;;;;;0.17;0.17;;;;;;;;;;5059390;27;93117;-73
2022/06/19 02:46:25;;;;;;;0.00;0.00;;;;;;;;;;5041491;27;93446;-73
2022/06/19 02:48:52;;;;;;;0.00;0.00;;;;;;;;;;5061125;27;92244;-73
2022/06/19 02:51:18;;;;;;;0.00;0.00;;;;;;;;;;5063009;27;93181;-74
2022/06/19 02:53:45;;;;;;;0.00;0.00;;;;;;;;;;5059408;27;92355;-72
2022/06/19 02:56:11;;;;;;;0.88;0.70;;;;;;;;;;5059800;27;93280;-73
2022/06/19 02:58:37;;;;;;;0.30;0.28;;;;;;;;;;5059218;27;93916;-73
2022/06/19 03:01:04;;;;;;;0.00;0.00;;;;;;;;;;5058835;27;92135;-74
2022/06/19 03:03:35;;;;;;;0.00;0.00;;;;;;;;;;5057606;27;94704;-74
2022/06/19 03:06:02;;;;;;;0.20;0.20;;;;;;;;;;5041265;27;93607;-73
2022/06/19 03:08:29;;;;;;;0.00;0.00;;;;;;;;;;5059151;27;92285;-74
2022/06/19 03:10:55;;;;;;;0.00;0.00;;;;;;;;;;5058936;27;93902;-73
2022/06/19 03:13:22;;;;;;;0.00;0.00;;;;;;;;;;5062261;27;93092;-74
2022/06/19 03:15:58;;;;;;;0.00;0.00;;;;;;;;;;5058831;27;92657;-74
2022/06/19 03:18:24;;;;;;;0.00;0.00;;;;;;;;;;5058461;27;92945;-74
2022/06/19 03:20:51;;;;;;;0.00;0.00;;;;;;;;;;5059494;27;91504;-73
2022/06/19 03:23:17;;;;;;;0.00;0.00;;;;;;;;;;5040842;27;93364;-72
2022/06/19 03:25:44;;;;;;;0.00;0.00;;;;;;;;;;5058552;27;93947;-72
2022/06/19 03:28:10;;;;;;;0.10;0.10;;;;;;;;;;5057024;27;94705;-73
2022/06/19 03:30:36;;;;;;;0.00;0.00;;;;;;;;;;5058243;27;96366;-74
2022/06/19 03:33:03;;;;;;;0.00;0.00;;;;;;;;;;5057716;27;93420;-73
2022/06/19 03:35:30;;;;;;;0.00;0.00;;;;;;;;;;5061514;27;92360;-74
2022/06/19 03:37:56;;;;;;;0.00;0.00;;;;;;;;;;5058256;27;93472;-75
2022/06/19 03:40:22;;;;;;;0.00;0.00;;;;;;;;;;5058551;27;92243;-74
2022/06/19 03:42:49;;;;;;;0.00;0.00;;;;;;;;;;5058553;27;93376;-74
2022/06/19 03:45:15;;;;;;;0.00;0.00;;;;;;;;;;5058656;27;92085;-73
2022/06/19 03:47:42;;;;;;;0.00;0.00;;;;;;;;;;5040219;27;92965;-74
2022/06/19 03:50:12;;;;;;;0.10;0.10;;;;;;;;;;5058342;27;92760;-75
2022/06/19 03:52:39;;;;;;;0.00;0.00;;;;;;;;;;5056530;27;96360;-73
2022/06/19 03:55:05;;;;;;;0.00;0.00;;;;;;;;;;5058199;27;92277;-74
2022/06/19 03:57:32;;;;;;;0.00;0.00;;;;;;;;;;5061227;27;93655;-72
2022/06/19 03:59:58;;;;;;;0.00;0.00;;;;;;;;;;5057510;27;92346;-74
2022/06/19 04:02:25;;;;;;;0.00;0.00;;;;;;;;;;5058155;27;93574;-74
2022/06/19 04:04:51;;;;;;;0.00;0.00;;;;;;;;;;5057938;27;93405;-74
2022/06/19 04:07:18;;;;;;;0.00;0.00;;;;;;;;;;5058256;27;92363;-74
2022/06/19 04:09:45;;;;;;;0.00;0.00;;;;;;;;;;5058704;27;93403;-74
2022/06/19 04:12:12;;;;;;;0.00;0.00;;;;;;;;;;5058056;27;93586;-75
2022/06/19 04:14:39;;;;;;;0.00;0.00;;;;;;;;;;5039404;27;92495;-74
2022/06/19 04:17:06;;;;;;;0.00;0.00;;;;;;;;;;5056373;27;95745;-73
2022/06/19 04:19:32;;;;;;;0.00;0.00;;;;;;;;;;5061045;27;93060;-75
2022/06/19 04:21:58;;;;;;;0.00;0.00;;;;;;;;;;5057971;27;92835;-74
2022/06/19 04:24:25;;;;;;;0.00;0.00;;;;;;;;;;5057840;27;93388;-75
2022/06/19 04:26:51;;;;;;;0.00;0.00;;;;;;;;;;5058072;27;92269;-74
2022/06/19 04:29:18;;;;;;;0.00;0.00;;;;;;;;;;5057469;27;92784;-74
2022/06/19 04:31:45;;;;;;;0.00;0.00;;;;;;;;;;5057530;27;94678;-79
2022/06/19 04:34:11;;;;;;;0.00;0.00;;;;;;;;;;5058421;27;91503;-74
2022/06/19 04:36:38;;;;;;;0.00;0.00;;;;;;;;;;5039971;27;92498;-72
2022/06/19 04:39:04;;;;;;;0.00;0.00;;;;;;;;;;5060578;27;94056;-72
2022/06/19 04:41:35;;;;;;;0.00;0.00;;;;;;;;;;5056157;27;94748;-73
2022/06/19 04:44:04;;;;;;;0.03;0.03;;;;;;;;;;5056683;27;93567;-72
2022/06/19 04:46:31;;;;;;;4.20;0.22;;;;;;;;;;5057299;27;93009;-71
2022/06/19 04:48:57;;;;;;;0.00;0.00;;;;;;;;;;5057505;27;93461;-71
2022/06/19 04:51:24;;;;;;;0.00;0.00;;;;;;;;;;5057208;27;93728;-72
2022/06/19 04:53:53;;;;;;;0.00;0.00;;;;;;;;;;5057764;27;92470;-72
2022/06/19 04:56:20;;;;;;;0.00;0.00;;;;;;;;;;5056948;27;93200;-70
2022/06/19 04:58:47;;;;;;;0.00;0.00;;;;;;;;;;5057845;27;92769;-71
2022/06/19 05:01:19;;;;;;;0.00;0.00;;;;;;;;;;5060344;27;92159;-72
2022/06/19 05:03:46;;;;;;;0.00;0.00;;;;;;;;;;5057021;27;94016;-71
2022/06/19 05:06:12;;;;;;;0.00;0.00;;;;;;;;;;5055774;27;94603;-71
2022/06/19 05:08:39;;;;;;;0.00;0.00;;;;;;;;;;5057151;27;95668;-72
2022/06/19 05:11:07;;;;;;;0.00;0.00;;;;;;;;;;5056866;27;93252;-71
2022/06/19 05:13:34;;;;;;;0.00;0.00;;;;;;;;;;5057364;27;92459;-71
2022/06/19 05:16:02;;;;;;;0.00;0.00;;;;;;;;;;5038823;27;94575;-71
2022/06/19 05:18:29;;;;;;;0.00;0.00;;;;;;;;;;5057104;27;93832;-71
2022/06/19 05:20:56;;;;;;;0.00;0.00;;;;;;;;;;5057153;27;92316;-71
2022/06/19 05:23:22;;;;;;;0.00;0.00;;;;;;;;;;5060163;27;93644;-72
2022/06/19 05:25:49;;;;;;;0.00;0.00;;;;;;;;;;5057153;27;92742;-72
2022/06/19 05:28:15;;;;;;;0.00;0.00;;;;;;;;;;5038784;27;95462;-72
2022/06/19 05:30:41;;;;;;;0.00;0.00;;;;;;;;;;5055180;27;96067;-71
2022/06/19 05:33:08;;;;;;;0.00;0.00;;;;;;;;;;5057021;27;92428;-72
2022/06/19 05:35:34;;;;;;;0.00;0.00;;;;;;;;;;5056876;27;93197;-72
2022/06/19 05:38:01;;;;;;;0.00;0.00;;;;;;;;;;5038278;27;94582;-72
2022/06/19 05:40:27;;;;;;;0.00;0.00;;;;;;;;;;5038639;27;92449;-73
2022/06/19 05:42:53;;;;;;;0.00;0.00;;;;;;;;;;5057070;27;93561;-72
2022/06/19 05:45:20;;;;;;;0.00;0.00;;;;;;;;;;5059939;27;93618;-72
2022/06/19 05:47:46;;;;;;;0.00;0.00;;;;;;;;;;5057331;27;93834;-72
2022/06/19 05:50:12;;;;;;;0.00;0.00;;;;;;;;;;5056554;27;93452;-72
2022/06/19 05:52:39;;;;;;;0.00;0.00;;;;;;;;;;5038584;27;92308;-72
2022/06/19 05:55:06;;;;;;;0.00;0.00;;;;;;;;;;5055272;27;94793;-72
2022/06/19 05:57:32;;;;;;;0.00;0.00;;;;;;;;;;5059668;27;93396;-72
2022/06/19 06:00:00;;;;;;;0.10;0.10;;;;;;;;;;5059777;27;92331;-71
2022/06/19 06:02:26;;;;;;;0.00;0.00;;;;;;;;;;5041829;27;95178;-72
2022/06/19 06:04:53;;;;;;;0.00;0.00;;;;;;;;;;5060043;27;93612;-71
2022/06/19 06:07:20;;;;;;;0.00;0.00;;;;;;;;;;5062849;27;92165;-72
2022/06/19 06:09:47;;;;;;;0.00;0.00;;;;;;;;;;5059836;27;93598;-72
2022/06/19 06:12:13;;;;;;;0.00;0.00;;;;;;;;;;5060571;27;91582;-71
2022/06/19 06:14:39;;;;;;;0.00;0.00;;;;;;;;;;5060227;27;93164;-72
2022/06/19 06:17:06;;;;;;;0.00;0.00;;;;;;;;;;5059589;27;93884;-72
2022/06/19 06:19:33;;;;;;;0.00;0.00;;;;;;;;;;5058655;27;94627;-71
2022/06/19 06:22:00;;;;;;;0.00;0.00;;;;;;;;;;5041759;27;96119;-72
2022/06/19 06:24:26;;;;;;;0.00;0.00;;;;;;;;;;5059684;27;93668;-72
2022/06/19 06:26:53;;;;;;;0.00;0.00;;;;;;;;;;5059625;27;92276;-72
2022/06/19 06:29:20;;;;;;;0.00;0.00;;;;;;;;;;5062632;27;93198;-71
2022/06/19 06:31:47;;;;;;;0.00;0.00;;;;;;;;;;5059751;27;92173;-72
2022/06/19 06:34:13;;;;;;;0.10;0.10;;;;;;;;;;5059408;27;93370;-72
2022/06/19 06:36:39;;;;;;;0.00;0.00;;;;;;;;;;5059629;27;92779;-71
2022/06/19 06:39:06;;;;;;;0.00;0.00;;;;;;;;;;5059598;27;92147;-72
2022/06/19 06:41:32;;;;;;;0.00;0.00;;;;;;;;;;5059464;27;92957;-73
2022/06/19 06:43:58;;;;;;;0.00;0.00;;;;;;;;;;5057623;27;95923;-74
2022/06/19 06:46:26;;;;;;;0.00;0.00;;;;;;;;;;5059392;27;92362;-76
2022/06/19 06:48:59;;;;;;;0.00;0.00;;;;;;;;;;5043600;27;94290;-75
2022/06/19 06:51:26;;;;;;;0.90;0.90;;;;;;;;;;5059154;27;93118;-74
2022/06/19 06:53:53;;;;;;;0.00;0.00;;;;;;;;;;5059449;27;93403;-74
2022/06/19 06:56:20;;;;;;;0.00;0.00;;;;;;;;;;5058877;27;93903;-74
2022/06/19 06:58:47;;;;;;;0.00;0.00;;;;;;;;;;5059371;27;92330;-73
2022/06/19 07:01:15;;;;;;;0.00;0.00;;;;;;;;;;5059415;27;92491;-72
2022/06/19 07:03:42;;;;;;;0.00;0.00;;;;;;;;;;5058426;27;93380;-72
2022/06/19 07:06:10;;;;;;;0.00;0.00;;;;;;;;;;5059271;27;92361;-72
2022/06/19 07:08:37;;;;;;;0.00;0.00;;;;;;;;;;5056500;27;94723;-72
2022/06/19 07:11:04;;;;;;;0.00;0.00;;;;;;;;;;5062239;27;92659;-72
2022/06/19 07:13:30;;;;;;;0.00;0.00;;;;;;;;;;5059179;27;93673;-73
2022/06/19 07:15:57;;;;;;;0.00;0.00;;;;;;;;;;5058320;27;93708;-73
2022/06/19 07:18:23;;;;;;;0.00;0.00;;;;;;;;;;5058767;27;92356;-72
2022/06/19 07:20:49;;;;;;;0.00;0.00;;;;;;;;;;5059118;27;92565;-72
2022/06/19 07:23:16;;;;;;;0.00;0.00;;;;;;;;;;5058684;27;93241;-72
2022/06/19 07:25:42;;;;;;;0.03;0.03;;;;;;;;;;5059378;27;91601;-72
2022/06/19 07:28:13;;;;;;;0.00;0.00;;;;;;;;;;5058796;27;93153;-71
2022/06/19 07:30:40;;;;;;;0.00;0.00;;;;;;;;;;5058304;27;93544;-72
2022/06/19 07:33:06;;;;;;;0.00;0.00;;;;;;;;;;5060314;27;94626;-71
2022/06/19 07:35:32;;;;;;;0.00;0.00;;;;;;;;;;5058456;27;93555;-72
2022/06/19 07:37:59;;;;;;;0.00;0.00;;;;;;;;;;5058670;27;92419;-72
2022/06/19 07:40:26;;;;;;;0.00;0.00;;;;;;;;;;5058658;27;93146;-74
2022/06/19 07:42:52;;;;;;;0.00;0.00;;;;;;;;;;5058342;27;93493;-75
2022/06/19 07:45:19;;;;;;;0.00;0.00;;;;;;;;;;5058351;27;92291;-74
2022/06/19 07:50:30;;;;;;;0.00;0.00;;;;;;;;;;5058807;27;93177;-73
2022/06/19 07:52:57;;;;;;;0.00;0.00;;;;;;;;;;5058277;27;92313;-73
2022/06/19 07:55:25;;;;;;;0.00;0.00;;;;;;;;;;5061300;27;93269;-73
2022/06/19 07:57:52;;;;;;;0.00;0.00;;;;;;;;;;5056099;27;94800;-74
2022/06/19 08:00:20;;;;;;;0.00;0.00;;;;;;;;;;5057845;27;95796;-73
2022/06/19 08:02:48;;;;;;;0.00;0.00;;;;;;;;;;5058042;27;93891;-73
2022/06/19 08:05:15;;;;;;;0.00;0.00;;;;;;;;;;5058096;27;92374;-72
2022/06/19 08:07:42;;;;;;;0.00;0.00;;;;;;;;;;5058201;27;92499;-73
2022/06/19 08:10:09;;;;;;;0.00;0.00;;;;;;;;;;5057980;27;93688;-73
2022/06/19 08:12:35;;;;;;;0.00;0.00;;;;;;;;;;5058216;27;93376;-72
2022/06/19 08:15:02;;;;;;;0.00;0.00;;;;;;;;;;5058657;27;92904;-71
2022/06/19 08:17:28;;;;;;;0.00;0.00;;;;;;;;;;5060885;27;93536;-72
2022/06/19 08:19:55;;;;;;;0.00;0.00;;;;;;;;;;5057966;27;92815;-72
2022/06/19 08:22:21;;;;;;;0.00;0.00;;;;;;;;;;5038136;27;96986;-72
2022/06/19 08:24:52;;;;;;;0.00;0.00;;;;;;;;;;5057860;27;92471;-72
2022/06/19 08:27:19;;;;;;;0.00;0.00;;;;;;;;;;5057797;27;93753;-71
2022/06/19 08:29:46;;;;;;;0.00;0.00;;;;;;;;;;5057644;27;93477;-72
2022/06/19 08:32:12;;;;;;;0.00;0.00;;;;;;;;;;5057941;27;92241;-72
2022/06/19 08:34:39;;;;;;;0.00;0.00;;;;;;;;;;5057715;27;93629;-73
2022/06/19 08:37:07;;;;;;;0.00;0.00;;;;;;;;;;5057570;27;93031;-72
2022/06/19 08:39:34;;;;;;;0.00;0.00;;;;;;;;;;5060977;27;91725;-71
2022/06/19 08:42:06;;;;;;;0.00;0.00;;;;;;;;;;5057596;27;93279;-73
2022/06/19 08:44:44;;;;;;;0.00;0.00;;;;;;;;;;5058145;27;92218;-73
2022/06/19 08:47:30;;;;;;;0.00;0.00;;;;;;;;;;5056212;27;94556;-73
2022/06/19 08:49:56;;;;;;;0.00;0.00;;;;;;;;;;5057035;27;93558;-72
2022/06/19 08:52:41;;;;;;;0.00;0.00;;;;;;;;;;5057565;27;92241;-73
2022/06/19 08:55:07;;;;;;;0.00;0.00;;;;;;;;;;5057626;27;93454;-73
2022/06/19 08:57:40;;;;;;;0.00;0.00;;;;;;;;;;5039513;27;92964;-73
2022/06/19 09:00:06;;;;;;;0.00;0.00;;;;;;;;;;5060324;27;93119;-73
2022/06/19 09:02:43;;;;;;;0.00;0.00;;;;;;;;;;5038586;27;94267;-72
2022/06/19 09:05:44;;;;;;;0.00;0.00;;;;;;;;;;5057819;27;91535;-73
2022/06/19 09:08:22;;;;;;;0.00;0.00;;;;;;;;;;5057509;27;92539;-73
2022/06/19 09:10:55;;;;;;;0.00;0.00;;;;;;;;;;5056841;27;93213;-73
2022/06/19 09:13:33;;;;;;;0.00;0.00;;;;;;;;;;5055871;27;95752;-72
2022/06/19 09:16:07;;;;;;;0.00;0.00;;;;;;;;;;5059235;27;95240;-74
2022/06/19 09:18:38;;;;;;;0.00;0.00;;;;;;;;;;5057057;27;92639;-73
2022/06/19 09:21:10;;;;;;;0.00;0.00;;;;;;;;;;5057171;27;92340;-74
2022/06/19 09:23:55;;;;;;;0.00;0.00;;;;;;;;;;5060171;27;93481;-74
2022/06/19 09:26:34;;;;;;;0.00;0.00;;;;;;;;;;5057084;27;92431;-74
2022/06/19 09:29:10;;;;;;;0.10;0.10;;;;;;;;;;5056989;27;93443;-73
2022/06/19 09:31:36;;;;;;;0.00;0.00;;;;;;;;;;5058860;27;92953;-74
2022/06/19 09:34:09;;;;;;;0.00;0.00;;;;;;;;;;5060595;27;92328;-74
2022/06/19 09:36:40;;;;;;;0.00;0.00;;;;;;;;;;5060442;27;93325;-74
2022/06/19 09:39:18;;;;;;;0.10;0.10;;;;;;;;;;5058702;27;95946;-75
2022/06/19 09:41:50;;;;;;;0.28;0.20;;;;;;;;;;5042160;27;92441;-74
2022/06/19 09:44:22;;;;;;;0.00;0.00;;;;;;;;;;5059916;27;93402;-74
2022/06/19 09:47:02;;;;;;;0.00;0.00;;;;;;;;;;5063246;27;93508;-73
2022/06/19 09:49:36;;;;;;;0.00;0.00;;;;;;;;;;5060442;27;93742;-74
2022/06/19 09:52:08;;;;;;;0.00;0.00;;;;;;;;;;5042284;27;93648;-74
2022/06/19 09:54:43;;;;;;;0.00;0.00;;;;;;;;;;5042209;27;92261;-75
2022/06/19 09:57:17;;;;;;;0.30;0.10;;;;;;;;;;5060353;27;93304;-73
2022/06/19 10:00:04;;;;;;;0.00;0.00;;;;;;;;;;5059435;27;93428;-71
2022/06/19 10:02:56;;;;;;;0.10;0.10;;;;;;;;;;5059517;27;92272;-73
2022/06/19 10:05:32;;;;;;;0.00;0.00;;;;;;;;;;5058347;27;94696;-72
2022/06/19 10:08:09;;;;;;;0.08;0.08;;;;;;;;;;5059840;27;94099;-72
2022/06/19 10:10:40;;;;;;;0.00;0.00;;;;;;;;;;5063204;27;92417;-73
2022/06/19 10:13:11;;;;;;;0.00;0.00;;;;;;;;;;5059966;27;93714;-75
2022/06/19 10:15:39;;;;;;;0.10;0.10;;;;;;;;;;5059348;27;92226;-74
2022/06/19 10:18:12;;;;;;;0.00;0.00;;;;;;;;;;5059542;27;93277;-73
2022/06/19 10:20:38;;;;;;;0.00;0.00;;;;;;;;;;5023272;27;93161;-73
2022/06/19 10:23:23;;;;;;;0.00;0.00;;;;;;;;;;5060409;27;91401;-73
2022/06/19 10:25:49;;;;;;;0.00;0.00;;;;;;;;;;5059383;27;92921;-75
2022/06/19 10:28:36;;;;;;;0.00;0.00;;;;;;;;;;5059433;27;93255;-75
2022/06/19 10:31:02;;;;;;;0.00;0.00;;;;;;;;;;5058206;27;94739;-73
2022/06/19 10:33:35;;;;;;;0.20;0.20;;;;;;;;;;5062990;27;96108;-73
2022/06/19 10:36:20;;;;;;;0.00;0.00;;;;;;;;;;5059710;27;92411;-73
2022/06/19 10:39:01;;;;;;;0.00;0.00;;;;;;;;;;5059647;27;93321;-74
2022/06/19 10:44:21;;;;;;;0.10;0.10;;;;;;;;;;5059552;27;92337;-72
2022/06/19 10:47:00;;;;;;;0.10;0.10;;;;;;;;;;5058954;27;93669;-73
2022/06/19 10:49:32;;;;;;;0.00;0.00;;;;;;;;;;5059385;27;92917;-73
2022/06/19 10:52:04;;;;;;;0.00;0.00;;;;;;;;;;5059269;27;92379;-73
2022/06/19 10:54:31;;;;;;;0.10;0.10;;;;;;;;;;5062226;27;93287;-73
2022/06/19 10:57:22;;;;;;;0.00;0.00;;;;;;;;;;5057602;27;94764;-72
2022/06/19 10:59:49;;;;;;;0.00;0.00;;;;;;;;;;5058462;27;95810;-73
2022/06/19 11:05:24;;;;;;;0.00;0.00;;;;;;;;;;5059237;27;92371;-73
2022/06/19 11:07:51;;;;;;;0.00;0.00;;;;;;;;;;5058903;27;92422;-77
2022/06/19 11:10:21;;;;;;;0.00;0.00;;;;;;;;;;5058967;27;93641;-73
2022/06/19 11:12:49;;;;;;;0.00;0.00;;;;;;;;;;5058986;27;92333;-74
2022/06/19 11:15:30;;;;;;;0.00;0.00;;;;;;;;;;5059633;27;93436;-73
2022/06/19 11:18:13;;;;;;;0.10;0.10;;;;;;;;;;5043885;27;93951;-75
2022/06/19 11:20:41;;;;;;;0.28;0.28;;;;;;;;;;5058848;27;92634;-75
2022/06/19 11:23:18;;;;;;;0.00;0.00;;;;;;;;;;5057085;27;95829;-74
2022/06/19 11:25:53;;;;;;;0.00;0.00;;;;;;;;;;5050116;27;92378;-74
2022/06/19 11:28:21;;;;;;;0.00;0.00;;;;;;;;;;5038367;28;93349;-75
2022/06/19 11:30:52;;;;;;;0.00;0.00;;;;;;;;;;5037775;28;93731;-74
2022/06/19 11:33:30;;;;;;;0.00;0.00;;;;;;;;;;5049417;27;92272;-74
2022/06/19 11:35:59;;;;;;;0.00;0.00;;;;;;;;;;5038500;28;93395;-74
2022/06/19 11:38:32;;;;;;;0.00;0.00;;;;;;;;;;5037939;28;93503;-74
2022/06/19 11:40:58;;;;;;;0.00;0.00;;;;;;;;;;5041302;28;91551;-74
2022/06/19 11:43:29;;;;;;;0.00;0.00;;;;;;;;;;5038026;28;93398;-73
2022/06/19 11:46:05;;;;;;;0.00;0.00;;;;;;;;;;5038279;28;92320;-73
2022/06/19 11:48:32;;;;;;;0.10;0.10;;;;;;;;;;5036751;28;94769;-73
2022/06/19 11:50:58;;;;;;;0.00;0.00;;;;;;;;;;5037948;28;92560;-73
2022/06/19 11:53:27;;;;;;;0.10;0.10;;;;;;;;;;5047401;27;92286;-72
2022/06/19 11:56:12;;;;;;;0.10;0.10;;;;;;;;;;5046412;27;93341;-72
2022/06/19 11:58:40;;;;;;;0.15;0.05;;;;;;;;;;5046769;27;93536;-72
2022/06/19 12:01:06;;;;;;;0.10;0.10;;;;;;;;;;5046607;27;92359;-72
2022/06/19 12:03:37;;;;;;;0.65;0.40;;;;;;;;;;5051516;27;93413;-73
2022/06/19 12:06:04;;;;;;;;;;;;;;;;;;5038314;28;92169;-73
2022/06/19 12:08:38;;;;;;;0.20;0.20;;;;;;;;;;5036854;28;121463;-71
2022/06/19 12:11:05;;;;;;;0.10;0.10;;;;;;;;;;5037646;28;93811;-70
2022/06/19 12:13:34;;;;;;;0.00;0.00;;;;;;;;;;5036332;28;94755;-72
2022/06/19 12:16:11;;;;;;;0.13;0.13;;;;;;;;;;5037695;28;95808;-72
2022/06/19 12:18:37;;;;;;;0.00;0.00;;;;;;;;;;5036976;28;93440;-72
2022/06/19 12:21:14;;;;;;;0.00;0.00;;;;;;;;;;5037756;28;92353;-72
2022/06/19 12:23:44;;;;;;;0.10;0.10;;;;;;;;;;5037696;28;93594;-73
2022/06/19 12:26:12;;;;;;;0.10;0.10;;;;;;;;;;5040766;28;93523;-72
2022/06/19 12:28:41;;;;;;;0.00;0.00;;;;;;;;;;5037377;28;93473;-71
2022/06/19 12:31:16;;;;;;;0.00;0.00;;;;;;;;;;5037471;28;93421;-71
2022/06/19 12:33:45;;;;;;;0.00;0.00;;;;;;;;;;5037543;28;92381;-71
2022/06/19 12:36:15;;;;;;;0.10;0.10;;;;;;;;;;5037717;28;93042;-71
2022/06/19 12:38:46;;;;;;;0.10;0.10;;;;;;;;;;5035560;28;96025;-70
2022/06/19 12:41:32;;;;;;;0.70;0.55;;;;;;;;;;5037245;28;92343;-70
2022/06/19 12:44:08;;;;;;;0.00;0.00;;;;;;;;;;5037278;27;93277;-70
2022/06/19 12:46:37;;;;;;;0.00;0.00;;;;;;;;;;5043623;27;94611;-70
2022/06/19 12:49:22;;;;;;;0.00;0.00;;;;;;;;;;5045423;27;92556;-70
2022/06/19 12:51:49;;;;;;;0.00;0.00;;;;;;;;;;5019216;28;93275;-70
2022/06/19 12:54:24;;;;;;;0.10;0.10;;;;;;;;;;5036868;28;92980;-71
2022/06/19 12:57:05;;;;;;;0.00;0.00;;;;;;;;;;5037139;28;92928;-71
2022/06/19 12:59:51;;;;;;;0.00;0.00;;;;;;;;;;5036440;28;93802;-70
2022/06/19 13:02:27;;;;;;;0.00;0.00;;;;;;;;;;5036695;28;92418;-71
2022/06/19 13:04:56;;;;;;;0.00;0.00;;;;;;;;;;5039998;27;94824;-71
2022/06/19 13:07:22;;;;;;;0.00;0.00;;;;;;;;;;5048365;27;93718;-71
2022/06/19 13:10:09;;;;;;;0.10;0.10;;;;;;;;;;5043792;28;92382;-70
2022/06/19 13:12:38;;;;;;;0.00;0.00;;;;;;;;;;5040699;28;93558;-70
2022/06/19 13:15:19;;;;;;;0.00;0.00;;;;;;;;;;5039369;28;93228;-71
2022/06/19 13:17:48;;;;;;;0.00;0.00;;;;;;;;;;5040532;28;92876;-71
2022/06/19 13:20:33;;;;;;;0.10;0.10;;;;;;;;;;5040341;28;93677;-69
2022/06/19 13:23:00;;;;;;;0.00;0.00;;;;;;;;;;5023389;28;91534;-72
2022/06/19 13:25:35;;;;;;;0.00;0.00;;;;;;;;;;5040257;28;92705;-71
2022/06/19 13:28:03;;;;;;;0.00;0.00;;;;;;;;;;5040012;28;93579;-72
2022/06/19 13:30:42;;;;;;;0.10;0.10;;;;;;;;;;5038879;28;94997;-71
2022/06/19 13:33:09;;;;;;;0.00;0.00;;;;;;;;;;5043260;28;95795;-71
2022/06/19 13:35:50;;;;;;;0.00;0.00;;;;;;;;;;5040212;28;92353;-70
2022/06/19 13:38:26;;;;;;;0.00;0.00;;;;;;;;;;5051635;27;93509;-71
2022/06/19 13:40:58;;;;;;;0.00;0.00;;;;;;;;;;5041935;27;93449;-70
2022/06/19 13:43:38;;;;;;;0.00;0.00;;;;;;;;;;5053904;27;93673;-70
2022/06/19 13:46:08;;;;;;;0.00;0.00;;;;;;;;;;5039410;27;93864;-70
2022/06/19 13:48:34;;;;;;;0.10;0.10;;;;;;;;;;5042714;27;92666;-70
2022/06/19 13:51:04;;;;;;;0.10;0.10;;;;;;;;;;5039233;27;92129;-70
2022/06/19 13:53:48;;;;;;;0.00;0.00;;;;;;;;;;5024657;27;94346;-72
2022/06/19 13:56:18;;;;;;;0.00;0.00;;;;;;;;;;5040487;27;95899;-70
2022/06/19 13:59:13;;;;;;;0.10;0.10;;;;;;;;;;5038457;27;95624;-70
2022/06/19 14:02:03;;;;;;;0.13;0.13;;;;;;;;;;4963158;28;93255;-71
2022/06/19 14:04:47;;;;;;;0.10;0.10;;;;;;;;;;5024678;27;92405;-70
2022/06/19 14:07:17;;;;;;;0.00;0.00;;;;;;;;;;5037681;27;92694;-70
2022/06/19 14:09:59;;;;;;;0.00;0.00;;;;;;;;;;5019890;27;94344;-70
2022/06/19 14:12:28;;;;;;;0.00;0.00;;;;;;;;;;5037972;27;92476;-70
2022/06/19 14:15:01;;;;;;;0.00;0.00;;;;;;;;;;5038215;27;93257;-70
2022/06/19 14:17:50;;;;;;;0.00;0.00;;;;;;;;;;5019285;27;93937;-70
2022/06/19 14:20:22;;;;;;;0.00;0.00;;;;;;;;;;4984129;27;92448;-70
2022/06/19 14:22:57;;;;;;;0.00;0.00;;;;;;;;;;5035741;27;96299;-71
2022/06/19 14:25:43;;;;;;;0.00;0.00;;;;;;;;;;5040667;27;92317;-65
2022/06/19 14:28:31;;;;;;;0.00;0.00;;;;;;;;;;5037159;27;93370;-69
2022/06/19 14:30:58;;;;;;;0.10;0.10;;;;;;;;;;5037392;27;92672;-69
2022/06/19 14:33:31;;;;;;;0.00;0.00;;;;;;;;;;5038940;27;92307;-69
2022/06/19 14:36:12;;;;;;;0.10;0.10;;;;;;;;;;5037817;27;92332;-68
2022/06/19 14:38:38;;;;;;;0.10;0.10;;;;;;;;;;5037220;27;93649;-70
2022/06/19 14:41:07;;;;;;;0.00;0.00;;;;;;;;;;5038072;27;91429;-69
2022/06/19 14:43:36;;;;;;;0.00;0.00;;;;;;;;;;5042980;27;92663;-70
2022/06/19 14:46:02;;;;;;;0.00;0.00;;;;;;;;;;5037266;27;92234;-74
2022/06/19 14:48:38;;;;;;;0.00;0.00;;;;;;;;;;5035890;27;94731;-77
2022/06/19 14:51:18;;;;;;;0.00;0.00;;;;;;;;;;5037326;27;93644;-74
2022/06/19 14:53:47;;;;;;;0.00;0.00;;;;;;;;;;5039460;27;92399;-74
2022/06/19 14:56:32;;;;;;;0.00;0.00;;;;;;;;;;5037022;27;93277;-73
2022/06/19 14:59:01;;;;;;;0.00;0.00;;;;;;;;;;5036274;27;92400;-74
2022/06/19 15:01:33;;;;;;;0.00;0.00;;;;;;;;;;4997610;27;1131912;-73
2022/06/19 15:04:05;;;;;;;0.00;0.00;;;;;;;;;;5038263;27;92587;-72
2022/06/19 15:06:40;;;;;;;0.00;0.00;;;;;;;;;;5041536;27;92316;-71
2022/06/19 15:09:08;;;;;;;0.00;0.00;;;;;;;;;;5038156;27;92623;-73